Time;durP1;ratioP1;P1;durP2;ratioP2;P2;SDS_P1;SDS_P2;PMS_P1;PMS_P2;Temp;Humidity;BMP_temperature;BMP_pressure;BME280_temperature;BME280_humidity;BME280_pressure;Samples;Min_cycle;Max_cycle;Signal;HPM_P1;HPM_P2
2021/09/12 00:02:56;;;;;;;1.02;0.93;;;23.70;59.50;;;;;;6268785;28;20035;-71
2021/09/12 00:05:56;;;;;;;1.20;0.77;;;23.80;59.60;;;;;;6268796;28;20393;-72
2021/09/12 00:08:57;;;;;;;0.93;0.80;;;23.80;59.70;;;;;;6269462;28;20355;-72
2021/09/12 00:11:58;;;;;;;0.50;0.50;;;23.70;59.50;;;;;;6268439;28;20748;-72
2021/09/12 00:14:58;;;;;;;0.80;0.70;;;23.70;59.50;;;;;;6242997;28;20112;-72
2021/09/12 00:17:59;;;;;;;1.15;0.90;;;23.70;59.50;;;;;;6244021;28;20025;-72
2021/09/12 00:21:00;;;;;;;1.55;0.70;;;23.70;59.50;;;;;;6246080;28;20470;-72
2021/09/12 00:24:00;;;;;;;1.27;0.95;;;23.80;59.60;;;;;;6249567;28;20021;-72
2021/09/12 00:27:01;;;;;;;0.70;0.63;;;23.80;59.60;;;;;;6268672;28;20032;-72
2021/09/12 00:30:02;;;;;;;0.80;0.77;;;23.70;59.50;;;;;;6268427;28;20071;-72
2021/09/12 00:33:03;;;;;;;0.90;0.90;;;23.70;59.50;;;;;;6268600;28;20082;-72
2021/09/12 00:36:05;;;;;;;0.70;0.60;;;23.70;59.50;;;;;;6268584;28;20032;-72
2021/09/12 00:39:05;;;;;;;0.85;0.80;;;23.70;59.60;;;;;;6268036;28;20029;-72
2021/09/12 00:42:06;;;;;;;0.65;0.60;;;23.70;59.60;;;;;;6267941;28;20427;-72
2021/09/12 00:45:07;;;;;;;0.77;0.77;;;23.70;59.50;;;;;;6250403;28;20029;-73
2021/09/12 00:48:10;;;;;;;0.90;0.90;;;23.70;59.50;;;;;;6267887;28;20036;-72
2021/09/12 00:51:10;;;;;;;0.73;0.73;;;23.70;59.50;;;;;;6268024;28;20033;-72
2021/09/12 00:54:11;;;;;;;0.77;0.75;;;23.70;59.50;;;;;;6268083;28;20033;-73
2021/09/12 00:57:12;;;;;;;0.80;0.80;;;23.70;59.50;;;;;;6267942;28;20020;-72
2021/09/12 01:00:14;;;;;;;0.98;0.88;;;23.70;59.50;;;;;;6268407;28;20454;-72
2021/09/12 01:03:14;;;;;;;0.70;0.70;;;23.80;59.70;;;;;;6267784;28;20025;-72
2021/09/12 01:06:15;;;;;;;0.80;0.70;;;23.70;59.50;;;;;;6250154;28;20485;-72
2021/09/12 01:09:15;;;;;;;1.10;0.90;;;23.80;59.60;;;;;;6267701;28;20459;-72
2021/09/12 01:12:17;;;;;;;0.93;0.90;;;23.70;59.50;;;;;;6267820;28;20040;-72
2021/09/12 01:15:19;;;;;;;0.98;0.80;;;23.70;59.60;;;;;;6267973;28;20036;-72
2021/09/12 01:18:19;;;;;;;0.88;0.75;;;23.70;59.60;;;;;;6249851;28;20098;-72
2021/09/12 01:21:22;;;;;;;1.10;0.80;;;23.70;59.50;;;;;;6249875;28;20024;-72
2021/09/12 01:24:24;;;;;;;0.50;0.50;;;23.70;59.60;;;;;;6267650;28;20410;-72
2021/09/12 01:27:25;;;;;;;1.02;0.85;;;23.70;59.60;;;;;;6241868;28;20518;-72
2021/09/12 01:30:25;;;;;;;0.85;0.77;;;23.70;59.50;;;;;;6246966;28;20044;-72
2021/09/12 01:33:27;;;;;;;0.63;0.63;;;23.70;59.60;;;;;;6267309;28;20057;-73
2021/09/12 01:36:28;;;;;;;0.63;0.60;;;23.70;59.60;;;;;;6270118;28;20094;-72
2021/09/12 01:39:29;;;;;;;0.63;0.63;;;23.70;59.60;;;;;;6252962;28;20398;-72
2021/09/12 01:42:29;;;;;;;0.68;0.68;;;23.80;59.70;;;;;;6246309;28;20144;-72
2021/09/12 01:45:30;;;;;;;0.60;0.60;;;23.80;59.70;;;;;;6247483;28;20018;-72
2021/09/12 01:48:30;;;;;;;0.77;0.70;;;23.70;59.60;;;;;;6247305;28;20437;-72
2021/09/12 01:51:31;;;;;;;0.75;0.75;;;23.70;59.60;;;;;;6247217;28;20051;-72
2021/09/12 01:54:32;;;;;;;0.70;0.70;;;23.70;60.30;;;;;;6247537;28;20047;-72
2021/09/12 01:57:32;;;;;;;0.95;0.70;;;23.70;59.60;;;;;;6229836;28;20041;-72
2021/09/12 02:00:33;;;;;;;0.70;0.70;;;23.70;59.60;;;;;;6247627;28;20077;-72
2021/09/12 02:03:34;;;;;;;0.70;0.70;;;23.70;59.60;;;;;;6229322;28;20028;-73
2021/09/12 02:06:34;;;;;;;0.60;0.60;;;23.70;59.60;;;;;;6237088;28;20528;-72
2021/09/12 02:09:35;;;;;;;0.63;0.60;;;23.70;59.80;;;;;;6271686;28;20210;-72
2021/09/12 02:12:35;;;;;;;0.60;0.60;;;23.70;59.60;;;;;;6259411;28;20033;-72
2021/09/12 02:15:36;;;;;;;0.80;0.77;;;23.70;59.60;;;;;;6247305;28;20115;-72
2021/09/12 02:18:36;;;;;;;0.70;0.70;;;23.70;59.60;;;;;;6246976;28;20397;-72
2021/09/12 02:21:37;;;;;;;0.60;0.60;;;23.70;59.60;;;;;;6246690;28;20180;-73
2021/09/12 02:24:37;;;;;;;0.68;0.68;;;23.70;59.60;;;;;;6246910;28;20310;-72
2021/09/12 02:27:38;;;;;;;0.70;0.70;;;23.70;59.60;;;;;;6246793;28;20022;-73
2021/09/12 02:30:39;;;;;;;0.60;0.60;;;23.70;59.60;;;;;;6246878;28;20231;-72
2021/09/12 02:33:39;;;;;;;0.65;0.65;;;23.70;59.60;;;;;;6246162;28;20029;-72
2021/09/12 02:36:40;;;;;;;0.60;0.60;;;23.80;59.70;;;;;;6245699;28;20064;-72
2021/09/12 02:39:40;;;;;;;0.50;0.50;;;23.70;59.60;;;;;;6245770;28;20047;-72
2021/09/12 02:42:41;;;;;;;0.63;0.63;;;23.70;59.60;;;;;;6220132;28;20408;-72
2021/09/12 02:45:42;;;;;;;1.02;0.93;;;23.80;59.70;;;;;;6221287;28;20476;-72
2021/09/12 02:48:43;;;;;;;1.00;0.77;;;23.70;59.60;;;;;;6236533;28;20033;-72
2021/09/12 02:51:43;;;;;;;0.65;0.65;;;23.70;59.60;;;;;;6244434;28;20033;-72
2021/09/12 02:54:44;;;;;;;0.73;0.73;;;23.70;59.60;;;;;;6245827;28;20088;-72
2021/09/12 02:57:44;;;;;;;0.68;0.68;;;23.80;59.70;;;;;;6245268;28;20390;-72
2021/09/12 03:00:45;;;;;;;0.70;0.70;;;23.70;59.60;;;;;;6245751;28;20477;-72
2021/09/12 03:03:45;;;;;;;0.70;0.70;;;23.70;59.60;;;;;;6259508;28;20342;-72
2021/09/12 03:06:46;;;;;;;0.57;0.57;;;23.70;59.60;;;;;;6270334;28;20393;-72
2021/09/12 03:09:47;;;;;;;0.80;0.80;;;23.70;59.60;;;;;;6270198;28;20512;-72
2021/09/12 03:12:48;;;;;;;0.60;0.60;;;23.70;59.60;;;;;;6268182;28;20025;-72
2021/09/12 03:15:49;;;;;;;0.70;0.70;;;23.70;59.60;;;;;;6245290;28;20036;-72
2021/09/12 03:18:50;;;;;;;0.80;0.80;;;23.70;59.60;;;;;;6245088;28;20029;-72
2021/09/12 03:21:51;;;;;;;0.80;0.70;;;23.70;59.60;;;;;;6227489;28;20022;-72
2021/09/12 03:24:51;;;;;;;0.68;0.68;;;23.70;59.60;;;;;;6209718;28;20037;-72
2021/09/12 03:27:53;;;;;;;0.52;0.52;;;23.70;59.60;;;;;;6232560;28;20029;-72
2021/09/12 03:30:54;;;;;;;0.77;0.70;;;23.70;59.60;;;;;;6227136;28;20021;-72
2021/09/12 03:33:55;;;;;;;0.70;0.70;;;23.70;59.60;;;;;;6226578;28;20025;-72
2021/09/12 03:36:56;;;;;;;0.85;0.70;;;23.80;59.70;;;;;;6244572;28;20021;-72
2021/09/12 03:39:56;;;;;;;1.23;0.80;;;23.70;59.60;;;;;;6249669;28;20041;-71
2021/09/12 03:42:57;;;;;;;0.57;0.55;;;23.70;59.60;;;;;;6269471;28;20053;-71
2021/09/12 03:45:58;;;;;;;0.80;0.63;;;23.70;59.60;;;;;;6269375;28;20032;-73
2021/09/12 03:48:58;;;;;;;0.60;0.60;;;23.70;59.60;;;;;;6269028;28;20036;-72
2021/09/12 03:51:59;;;;;;;0.95;0.77;;;23.70;59.60;;;;;;6269705;28;20028;-72
2021/09/12 03:54:59;;;;;;;0.60;0.60;;;23.70;59.60;;;;;;6269157;28;20032;-72
2021/09/12 03:58:00;;;;;;;0.50;0.50;;;23.70;59.60;;;;;;6269194;28;20100;-72
2021/09/12 04:01:00;;;;;;;0.98;0.88;;;23.70;59.60;;;;;;6269151;28;20395;-72
2021/09/12 04:04:01;;;;;;;0.50;0.50;;;23.70;59.60;;;;;;6250746;28;20024;-71
2021/09/12 04:07:02;;;;;;;0.68;0.63;;;23.70;59.60;;;;;;6250863;28;20025;-72
2021/09/12 04:10:04;;;;;;;0.70;0.70;;;23.70;59.60;;;;;;6242757;28;20230;-72
2021/09/12 04:13:05;;;;;;;0.63;0.60;;;23.70;59.60;;;;;;6242731;28;20501;-73
2021/09/12 04:16:05;;;;;;;0.70;0.63;;;23.70;59.60;;;;;;6244017;28;20029;-72
2021/09/12 04:19:06;;;;;;;0.60;0.60;;;23.70;59.60;;;;;;6228858;28;20083;-72
2021/09/12 04:22:06;;;;;;;0.60;0.50;;;23.70;59.60;;;;;;6268821;28;20024;-72
2021/09/12 04:25:07;;;;;;;0.75;0.65;;;23.70;59.60;;;;;;6250375;28;20562;-72
2021/09/12 04:28:08;;;;;;;0.82;0.80;;;23.70;59.60;;;;;;6268770;28;20469;-73
2021/09/12 04:31:10;;;;;;;0.60;0.60;;;23.70;59.60;;;;;;6250876;28;20013;-72
2021/09/12 04:34:10;;;;;;;0.65;0.65;;;23.70;59.60;;;;;;6268822;28;20017;-72
2021/09/12 04:37:11;;;;;;;1.02;0.70;;;23.70;59.60;;;;;;6250239;28;20032;-72
2021/09/12 04:40:12;;;;;;;0.63;0.63;;;23.70;59.60;;;;;;6249986;28;20132;-72
2021/09/12 04:43:12;;;;;;;1.00;0.50;;;23.70;59.60;;;;;;6250115;28;20029;-72
2021/09/12 04:46:13;;;;;;;0.73;0.60;;;23.70;59.60;;;;;;6242197;28;20017;-72
2021/09/12 04:49:13;;;;;;;1.75;0.50;;;23.70;59.60;;;;;;6243017;28;20025;-73
2021/09/12 04:52:14;;;;;;;0.82;0.70;;;23.70;59.60;;;;;;6266977;28;20056;-72
2021/09/12 04:55:15;;;;;;;0.43;0.43;;;23.80;59.70;;;;;;6249748;28;20237;-71
2021/09/12 04:58:15;;;;;;;0.50;0.50;;;23.70;59.60;;;;;;6242069;28;20037;-72
2021/09/12 05:01:17;;;;;;;0.82;0.70;;;23.70;59.60;;;;;;6225040;28;20022;-72
2021/09/12 05:04:18;;;;;;;0.57;0.57;;;23.70;59.60;;;;;;6229724;28;20066;-72
2021/09/12 05:07:18;;;;;;;0.73;0.70;;;23.70;59.60;;;;;;6249356;28;20426;-72
2021/09/12 05:10:19;;;;;;;0.77;0.77;;;23.70;59.60;;;;;;6249573;28;20025;-72
2021/09/12 05:13:19;;;;;;;0.77;0.60;;;23.70;59.60;;;;;;6249702;28;20040;-73
2021/09/12 05:16:20;;;;;;;0.70;0.70;;;23.70;59.60;;;;;;6249644;28;20364;-72
2021/09/12 05:19:21;;;;;;;0.55;0.55;;;23.70;59.60;;;;;;6249601;28;20048;-72
2021/09/12 05:22:21;;;;;;;0.60;0.52;;;23.70;59.60;;;;;;6249481;28;20116;-72
2021/09/12 05:25:22;;;;;;;0.80;0.70;;;23.80;59.70;;;;;;6249441;28;20021;-72
2021/09/12 05:28:22;;;;;;;0.90;0.70;;;23.80;59.70;;;;;;6249643;28;20025;-72
2021/09/12 05:31:23;;;;;;;0.85;0.57;;;23.70;59.60;;;;;;6267227;28;20056;-72
2021/09/12 05:34:24;;;;;;;0.60;0.60;;;23.80;59.70;;;;;;6267357;28;20032;-72
2021/09/12 05:37:24;;;;;;;0.88;0.68;;;23.70;59.60;;;;;;6267040;28;20024;-72
2021/09/12 05:40:25;;;;;;;0.60;0.60;;;23.80;59.70;;;;;;6249092;28;20395;-71
2021/09/12 05:43:26;;;;;;;0.40;0.40;;;23.80;59.70;;;;;;6267021;28;20433;-72
2021/09/12 05:46:26;;;;;;;0.70;0.60;;;23.80;59.70;;;;;;6267143;28;20108;-72
2021/09/12 05:49:27;;;;;;;0.60;0.57;;;23.80;59.70;;;;;;6266899;28;20036;-72
2021/09/12 05:52:27;;;;;;;0.70;0.70;;;23.80;59.60;;;;;;6267084;28;20031;-72
2021/09/12 05:55:28;;;;;;;0.60;0.60;;;23.70;59.60;;;;;;6249289;28;20284;-72
2021/09/12 05:58:28;;;;;;;0.60;0.60;;;23.70;59.50;;;;;;6248685;28;20040;-72
2021/09/12 06:01:29;;;;;;;0.88;0.73;;;23.70;59.60;;;;;;6266732;28;20021;-73
2021/09/12 06:04:31;;;;;;;0.70;0.70;;;23.80;59.60;;;;;;6266797;28;20024;-72
2021/09/12 06:07:31;;;;;;;0.60;0.60;;;23.80;59.70;;;;;;6248923;28;20025;-72
2021/09/12 06:10:32;;;;;;;0.65;0.60;;;23.80;59.70;;;;;;6249143;28;20389;-72
2021/09/12 06:13:33;;;;;;;1.02;0.80;;;23.80;59.60;;;;;;6266521;28;20034;-72
2021/09/12 06:16:33;;;;;;;0.55;0.47;;;23.80;59.70;;;;;;6266797;28;20032;-72
2021/09/12 06:19:37;;;;;;;0.73;0.68;;;23.80;59.60;;;;;;6266689;28;20140;-72
2021/09/12 06:22:43;;;;;;;0.47;0.45;;;23.80;59.60;;;;;;6249850;28;20021;-72
2021/09/12 06:25:43;;;;;;;0.45;0.45;;;23.80;59.70;;;;;;6271012;28;20494;-72
2021/09/12 06:28:44;;;;;;;0.55;0.50;;;23.80;59.60;;;;;;6270808;28;20047;-72
2021/09/12 06:31:44;;;;;;;0.50;0.50;;;23.80;59.70;;;;;;6271022;28;20056;-72
2021/09/12 06:34:45;;;;;;;0.52;0.52;;;23.80;59.70;;;;;;6253122;28;20112;-72
2021/09/12 06:37:46;;;;;;;0.90;0.60;;;23.80;59.60;;;;;;6253336;28;20029;-72
2021/09/12 06:40:46;;;;;;;0.60;0.60;;;23.80;59.60;;;;;;6252401;28;20045;-72
2021/09/12 06:43:47;;;;;;;0.60;0.57;;;23.80;59.60;;;;;;6271096;28;20043;-72
2021/09/12 06:46:47;;;;;;;0.82;0.63;;;23.80;59.60;;;;;;6252582;28;20052;-72
2021/09/12 06:49:48;;;;;;;0.60;0.60;;;23.80;59.60;;;;;;6264859;28;20044;-72
2021/09/12 06:52:49;;;;;;;0.52;0.52;;;23.80;59.60;;;;;;6269212;28;20083;-72
2021/09/12 06:55:49;;;;;;;0.60;0.60;;;23.80;59.60;;;;;;6253165;28;20474;-72
2021/09/12 06:58:50;;;;;;;0.65;0.50;;;23.80;59.60;;;;;;6252319;28;20040;-72
2021/09/12 07:01:50;;;;;;;0.40;0.40;;;23.80;59.60;;;;;;6270341;28;20020;-72
2021/09/12 07:04:51;;;;;;;0.40;0.40;;;23.80;59.60;;;;;;6269826;28;20021;-72
2021/09/12 07:07:51;;;;;;;0.45;0.45;;;23.80;59.60;;;;;;6269666;28;20063;-72
2021/09/12 07:10:52;;;;;;;0.40;0.40;;;23.80;59.60;;;;;;6270188;28;20033;-73
2021/09/12 07:13:53;;;;;;;0.40;0.40;;;23.80;59.60;;;;;;6252075;28;20391;-72
2021/09/12 07:16:53;;;;;;;0.50;0.50;;;23.80;59.60;;;;;;6251911;28;20059;-72
2021/09/12 07:19:54;;;;;;;0.40;0.40;;;23.80;59.60;;;;;;6252203;28;20474;-73
2021/09/12 07:22:55;;;;;;;0.60;0.60;;;23.80;59.60;;;;;;6251817;28;20463;-72
2021/09/12 07:25:55;;;;;;;0.60;0.60;;;23.80;59.60;;;;;;6270048;28;20044;-72
2021/09/12 07:28:56;;;;;;;0.50;0.50;;;23.80;59.60;;;;;;6252605;28;20033;-72
2021/09/12 07:31:56;;;;;;;0.43;0.43;;;23.80;59.60;;;;;;6270337;28;20494;-72
2021/09/12 07:34:57;;;;;;;0.40;0.40;;;23.80;59.60;;;;;;6250941;28;20025;-72
2021/09/12 07:37:57;;;;;;;0.50;0.50;;;23.80;59.60;;;;;;6270285;28;20029;-72
2021/09/12 07:40:59;;;;;;;0.50;0.50;;;23.80;59.60;;;;;;6265321;28;20037;-72
2021/09/12 07:44:00;;;;;;;0.47;0.47;;;23.80;59.60;;;;;;6251546;28;20071;-72
2021/09/12 07:47:00;;;;;;;0.63;0.63;;;23.80;59.60;;;;;;6251504;28;20262;-72
2021/09/12 07:50:01;;;;;;;0.50;0.50;;;23.80;59.60;;;;;;6269840;28;20128;-72
2021/09/12 07:53:02;;;;;;;0.45;0.40;;;23.80;59.60;;;;;;6269244;28;20040;-72
2021/09/12 07:56:03;;;;;;;0.60;0.60;;;23.80;59.60;;;;;;6269350;28;20474;-72
2021/09/12 07:59:04;;;;;;;1.02;0.77;;;23.80;59.60;;;;;;6251317;28;20035;-72
2021/09/12 08:02:06;;;;;;;0.80;0.63;;;23.80;59.60;;;;;;6251354;28;20079;-72
2021/09/12 08:05:07;;;;;;;0.50;0.50;;;23.80;59.60;;;;;;6268690;28;20051;-72
2021/09/12 08:08:08;;;;;;;0.75;0.70;;;23.80;59.60;;;;;;6250944;28;20302;-71
2021/09/12 08:11:08;;;;;;;0.50;0.50;;;23.80;59.60;;;;;;6268579;28;20375;-72
2021/09/12 08:14:09;;;;;;;0.50;0.50;;;23.80;59.60;;;;;;6251219;28;20032;-71
2021/09/12 08:17:10;;;;;;;0.52;0.52;;;23.80;59.60;;;;;;6250514;28;20028;-73
2021/09/12 08:20:11;;;;;;;0.50;0.50;;;23.80;59.60;;;;;;6250959;28;20060;-72
2021/09/12 08:23:11;;;;;;;0.60;0.60;;;23.80;59.60;;;;;;6250608;28;20021;-72
2021/09/12 08:26:13;;;;;;;0.95;0.52;;;23.80;59.60;;;;;;6250475;28;20024;-72
2021/09/12 08:29:13;;;;;;;0.40;0.40;;;23.80;59.60;;;;;;6268736;28;20040;-72
2021/09/12 08:32:14;;;;;;;0.43;0.43;;;23.80;59.60;;;;;;6248892;28;20025;-71
2021/09/12 08:35:14;;;;;;;0.52;0.52;;;23.80;59.60;;;;;;6268628;28;20028;-72
2021/09/12 08:38:15;;;;;;;0.50;0.50;;;23.80;59.60;;;;;;6268405;28;20036;-72
2021/09/12 08:41:16;;;;;;;0.60;0.60;;;23.80;59.60;;;;;;6250030;28;20052;-72
2021/09/12 08:44:18;;;;;;;0.60;0.60;;;23.80;59.60;;;;;;6249656;28;20029;-72
2021/09/12 08:47:20;;;;;;;0.50;0.50;;;23.80;59.60;;;;;;6241372;28;20044;-72
2021/09/12 08:50:21;;;;;;;0.73;0.63;;;23.80;59.60;;;;;;6244281;28;20036;-71
2021/09/12 08:53:22;;;;;;;0.70;0.60;;;23.80;59.60;;;;;;6249953;28;20025;-72
2021/09/12 08:56:22;;;;;;;0.45;0.45;;;23.80;59.60;;;;;;6243636;28;20025;-72
2021/09/12 08:59:25;;;;;;;0.50;0.50;;;23.80;59.60;;;;;;6267651;28;20032;-72
2021/09/12 09:02:27;;;;;;;0.50;0.50;;;23.80;59.60;;;;;;6267519;28;20017;-71
2021/09/12 09:05:33;;;;;;;0.45;0.45;;;23.80;59.60;;;;;;6267144;28;20021;-72
2021/09/12 09:08:51;;;;;;;0.60;0.60;;;23.80;59.60;;;;;;6249577;28;20466;-72
2021/09/12 09:11:51;;;;;;;0.50;0.50;;;23.80;59.60;;;;;;6248086;28;20032;-73
2021/09/12 09:15:12;;;;;;;0.57;0.57;;;23.80;59.60;;;;;;6267789;28;20051;-72
2021/09/12 09:18:13;;;;;;;0.65;0.55;;;23.80;59.60;;;;;;6266635;28;20063;-72
2021/09/12 09:21:27;;;;;;;0.40;0.40;;;23.80;59.70;;;;;;6260405;28;20607;-71
2021/09/12 09:24:29;;;;;;;0.60;0.60;;;23.80;59.70;;;;;;6254465;28;20045;-71
2021/09/12 09:27:30;;;;;;;0.50;0.47;;;23.80;59.60;;;;;;6245265;28;20024;-70
2021/09/12 09:30:54;;;;;;;0.60;0.60;;;23.80;59.60;;;;;;6231829;28;20025;-71
2021/09/12 09:34:11;;;;;;;0.50;0.50;;;23.80;59.60;;;;;;6244235;28;20054;-70
2021/09/12 09:37:18;;;;;;;0.77;0.60;;;23.80;59.60;;;;;;6262770;28;20029;-70
2021/09/12 09:40:19;;;;;;;0.50;0.40;;;23.80;59.60;;;;;;6264572;28;20052;-71
2021/09/12 09:43:20;;;;;;;0.68;0.55;;;23.80;59.60;;;;;;6233464;28;20029;-71
2021/09/12 09:46:38;;;;;;;0.40;0.40;;;23.80;59.60;;;;;;6240942;28;20384;-71
2021/09/12 09:49:39;;;;;;;0.90;0.50;;;23.80;59.60;;;;;;6264322;28;20025;-71
2021/09/12 09:52:42;;;;;;;0.57;0.50;;;23.80;59.70;;;;;;6244482;28;20021;-71
2021/09/12 09:55:42;;;;;;;0.73;0.70;;;23.80;59.60;;;;;;6262547;28;20398;-72
2021/09/12 09:58:44;;;;;;;0.45;0.45;;;23.80;59.70;;;;;;6245556;28;20037;-71
2021/09/12 10:01:52;;;;;;;0.50;0.50;;;23.80;59.60;;;;;;6267424;28;20076;-71
2021/09/12 10:04:53;;;;;;;0.50;0.50;;;23.80;59.70;;;;;;6248830;28;20025;-72
2021/09/12 10:07:54;;;;;;;0.43;0.40;;;23.80;59.80;;;;;;6268458;28;20078;-72
2021/09/12 10:10:56;;;;;;;0.50;0.50;;;23.80;59.80;;;;;;6261106;28;20397;-72
2021/09/12 10:13:59;;;;;;;0.80;0.60;;;23.80;59.80;;;;;;6263547;28;20453;-72
2021/09/12 10:17:02;;;;;;;0.43;0.43;;;23.80;59.90;;;;;;6266187;28;20021;-72
2021/09/12 10:20:27;;;;;;;0.70;0.50;;;23.80;59.90;;;;;;6249135;28;20029;-72
2021/09/12 10:23:28;;;;;;;0.68;0.40;;;23.80;59.90;;;;;;6247555;28;20037;-71
2021/09/12 10:26:31;;;;;;;2.53;0.70;;;23.80;59.90;;;;;;6265236;28;20482;-71
2021/09/12 10:29:46;;;;;;;4.32;0.60;;;23.80;60.00;;;;;;6259341;28;20052;-72
2021/09/12 10:32:50;;;;;;;1.48;0.60;;;23.80;60.00;;;;;;6245963;28;20032;-72
2021/09/12 10:35:55;;;;;;;6.10;0.90;;;23.80;60.00;;;;;;6249811;28;20120;-72
2021/09/12 10:38:55;;;;;;;;;;;23.80;60.00;;;;;;6241425;28;20390;-72
2021/09/12 10:42:17;;;;;;;1.75;0.90;;;23.80;60.00;;;;;;6261142;28;19917;-72
2021/09/12 10:45:26;;;;;;;2.42;0.98;;;23.80;60.00;;;;;;6263920;28;20021;-72
2021/09/12 10:48:29;;;;;;;2.35;1.00;;;23.80;60.00;;;;;;6248958;28;20029;-71
2021/09/12 10:51:30;;;;;;;2.15;0.90;;;23.80;60.90;;;;;;6241071;28;20108;-71
2021/09/12 10:54:32;;;;;;;2.05;0.88;;;23.80;60.00;;;;;;6247169;28;20040;-72
2021/09/12 10:57:35;;;;;;;3.38;1.00;;;23.80;60.00;;;;;;6244053;28;20030;-71
2021/09/12 11:00:35;;;;;;;2.72;1.08;;;23.80;60.00;;;;;;6234552;28;20530;-72
2021/09/12 11:03:36;;;;;;;3.63;1.58;;;23.80;60.00;;;;;;6246692;28;20025;-71
2021/09/12 11:06:39;;;;;;;2.25;1.55;;;23.80;60.00;;;;;;6239048;28;20725;-72
2021/09/12 11:09:40;;;;;;;2.67;1.67;;;23.80;60.00;;;;;;6245045;28;20035;-72
2021/09/12 11:12:41;;;;;;;5.53;2.08;;;23.80;60.00;;;;;;6241631;28;20434;-72
2021/09/12 11:15:42;;;;;;;2.85;1.63;;;23.80;60.00;;;;;;6262217;28;20040;-72
2021/09/12 11:18:52;;;;;;;8.52;2.60;;;23.80;60.00;;;;;;6242279;28;20021;-72
2021/09/12 11:21:53;;;;;;;3.10;1.75;;;23.80;60.00;;;;;;6264867;28;20029;-72
2021/09/12 11:25:03;;;;;;;4.40;2.30;;;23.80;60.00;;;;;;6266761;28;20028;-72
2021/09/12 11:28:07;;;;;;;5.85;2.40;;;23.80;60.10;;;;;;6265551;28;20576;-72
2021/09/12 11:31:08;;;;;;;5.50;3.10;;;23.80;60.10;;;;;;6245177;28;20124;-73
2021/09/12 11:34:08;;;;;;;6.55;2.63;;;23.80;60.30;;;;;;6264291;28;20030;-74
2021/09/12 11:37:12;;;;;;;9.18;2.80;;;23.80;60.00;;;;;;6265990;28;20393;-75
2021/09/12 11:40:21;;;;;;;7.15;3.20;;;23.80;60.10;;;;;;6265849;28;20281;-74
2021/09/12 11:43:22;;;;;;;9.50;3.40;;;23.80;60.20;;;;;;6247444;28;20060;-74
2021/09/12 11:46:25;;;;;;;18.55;2.97;;;23.80;60.20;;;;;;6248057;28;20025;-74
2021/09/12 11:49:26;;;;;;;11.00;3.63;;;23.80;60.20;;;;;;6264093;28;20550;-75
2021/09/12 11:52:40;;;;;;;10.73;3.83;;;23.80;60.30;;;;;;6263109;28;20040;-74
2021/09/12 11:55:40;;;;;;;14.35;3.17;;;23.80;60.30;;;;;;6265246;28;20037;-74
2021/09/12 11:58:41;;;;;;;7.90;2.90;;;23.80;61.10;;;;;;6242339;28;20183;-75
2021/09/12 12:01:42;;;;;;;6.47;2.72;;;23.80;60.30;;;;;;6253286;28;20021;-75
2021/09/12 12:04:45;;;;;;;9.93;3.10;;;23.80;60.30;;;;;;6247258;28;20025;-75
2021/09/12 12:07:45;;;;;;;8.23;2.97;;;23.80;60.30;;;;;;6245215;28;20119;-73
2021/09/12 12:10:46;;;;;;;8.80;2.97;;;23.80;60.30;;;;;;6248228;28;20029;-75
2021/09/12 12:13:47;;;;;;;6.55;2.63;;;23.80;60.30;;;;;;6265541;28;20037;-74
2021/09/12 12:16:48;;;;;;;7.38;3.15;;;23.80;60.30;;;;;;6237418;28;20112;-74
2021/09/12 12:19:50;;;;;;;5.82;2.60;;;23.80;60.30;;;;;;6262786;28;20468;-74
2021/09/12 12:22:50;;;;;;;6.80;2.85;;;23.80;60.50;;;;;;6256775;28;20391;-73
2021/09/12 12:25:53;;;;;;;8.35;3.08;;;23.80;60.50;;;;;;6245241;28;20033;-74
2021/09/12 12:28:58;;;;;;;7.72;2.20;;;23.80;60.40;;;;;;6246814;28;20102;-74
2021/09/12 12:32:01;;;;;;;3.97;2.33;;;23.80;60.40;;;;;;6260712;28;20108;-74
2021/09/12 12:35:14;;;;;;;5.38;2.65;;;23.80;60.40;;;;;;6260616;28;20207;-73
2021/09/12 12:38:25;;;;;;;5.60;2.85;;;23.80;60.40;;;;;;6253135;28;20017;-73
2021/09/12 12:41:26;;;;;;;5.90;2.65;;;23.80;60.80;;;;;;6260474;28;20064;-74
2021/09/12 12:44:26;;;;;;;6.18;2.78;;;23.80;60.50;;;;;;6245363;28;20033;-74
2021/09/12 12:47:30;;;;;;;5.35;2.63;;;23.80;60.40;;;;;;6247094;28;20019;-74
2021/09/12 12:50:32;;;;;;;5.18;2.55;;;23.80;60.50;;;;;;6246479;28;20655;-73
2021/09/12 12:53:40;;;;;;;6.45;2.70;;;23.80;60.60;;;;;;6246333;28;20063;-74
2021/09/12 12:56:40;;;;;;;3.60;2.10;;;23.80;60.40;;;;;;6245631;28;20021;-74
2021/09/12 12:59:50;;;;;;;7.75;2.38;;;23.80;60.50;;;;;;6264124;28;20447;-74
2021/09/12 13:02:50;;;;;;;6.03;2.35;;;23.80;60.40;;;;;;6246157;28;20600;-73
2021/09/12 13:05:54;;;;;;;3.30;2.13;;;23.80;60.40;;;;;;6237932;28;20046;-73
2021/09/12 13:08:55;;;;;;;7.85;2.53;;;23.80;60.40;;;;;;6263657;28;20035;-74
2021/09/12 13:11:56;;;;;;;5.85;2.28;;;23.80;60.40;;;;;;6245813;28;20111;-74
2021/09/12 13:14:58;;;;;;;5.63;2.25;;;23.80;60.30;;;;;;6260126;28;20039;-73
2021/09/12 13:17:59;;;;;;;6.38;2.60;;;23.80;60.40;;;;;;6240703;28;20421;-74
2021/09/12 13:21:00;;;;;;;2.83;1.80;;;23.80;60.40;;;;;;6256025;28;20586;-74
2021/09/12 13:24:01;;;;;;;6.18;1.90;;;23.80;60.30;;;;;;6265559;28;20090;-74
2021/09/12 13:27:01;;;;;;;2.83;2.00;;;23.80;60.30;;;;;;6245955;28;20025;-71
2021/09/12 13:30:03;;;;;;;4.82;2.05;;;23.80;60.40;;;;;;6262385;28;20071;-71
2021/09/12 13:33:04;;;;;;;3.40;1.77;;;23.80;60.30;;;;;;6266562;28;20033;-71
2021/09/12 13:36:06;;;;;;;4.00;2.00;;;23.80;60.30;;;;;;6250447;28;20090;-72
2021/09/12 13:39:06;;;;;;;3.63;1.83;;;23.80;60.30;;;;;;6250478;28;20087;-71
2021/09/12 13:42:07;;;;;;;2.75;1.75;;;23.80;60.30;;;;;;6266915;28;20510;-71
2021/09/12 13:45:09;;;;;;;3.17;1.95;;;23.80;60.30;;;;;;6260013;28;20033;-71
2021/09/12 13:48:10;;;;;;;3.25;1.80;;;23.80;60.30;;;;;;6270268;28;20025;-71
2021/09/12 13:51:11;;;;;;;2.10;1.65;;;23.80;60.40;;;;;;6243531;28;20344;-72
2021/09/12 13:54:11;;;;;;;5.10;1.73;;;23.80;60.30;;;;;;6266950;28;20113;-71
2021/09/12 13:57:12;;;;;;;2.80;1.80;;;23.80;60.40;;;;;;6266388;28;20823;-71
2021/09/12 14:00:12;;;;;;;3.20;2.15;;;23.80;60.30;;;;;;6262939;28;20293;-71
2021/09/12 14:03:13;;;;;;;2.88;1.95;;;23.80;60.30;;;;;;6250258;28;20028;-71
2021/09/12 14:06:13;;;;;;;2.85;1.90;;;23.80;60.30;;;;;;6264393;28;20031;-71
2021/09/12 14:09:14;;;;;;;3.10;1.48;;;23.80;60.40;;;;;;6251268;28;20107;-71
2021/09/12 14:12:15;;;;;;;3.22;1.77;;;23.80;60.30;;;;;;6260963;28;20028;-71
2021/09/12 14:15:15;;;;;;;2.95;1.90;;;23.80;60.30;;;;;;6249215;28;20509;-71
2021/09/12 14:18:16;;;;;;;2.75;1.98;;;23.80;60.40;;;;;;6234635;28;20029;-72
2021/09/12 14:21:17;;;;;;;3.92;1.65;;;23.80;60.30;;;;;;6244255;28;20064;-71
2021/09/12 14:24:18;;;;;;;2.65;1.80;;;23.80;60.30;;;;;;6262334;28;20017;-70
2021/09/12 14:27:20;;;;;;;3.15;1.77;;;23.80;60.30;;;;;;6249455;28;20025;-70
2021/09/12 14:30:20;;;;;;;2.05;1.63;;;23.80;60.30;;;;;;6244797;28;20126;-70
2021/09/12 14:33:22;;;;;;;2.58;1.77;;;23.80;60.30;;;;;;6246523;28;20560;-70
2021/09/12 14:36:23;;;;;;;4.32;1.50;;;23.80;60.40;;;;;;6264648;28;20040;-71
2021/09/12 14:39:24;;;;;;;3.58;1.75;;;23.80;60.40;;;;;;6251536;28;20021;-71
2021/09/12 14:42:24;;;;;;;2.33;1.70;;;23.80;60.30;;;;;;6248912;28;20091;-71
2021/09/12 14:45:25;;;;;;;2.03;1.65;;;23.80;60.30;;;;;;6266816;28;20099;-72
2021/09/12 14:48:26;;;;;;;2.50;1.63;;;23.80;60.30;;;;;;6256574;28;20587;-72
2021/09/12 14:51:26;;;;;;;2.80;1.80;;;23.80;60.30;;;;;;6267181;28;20037;-70
2021/09/12 14:54:27;;;;;;;3.15;1.75;;;23.80;60.30;;;;;;6248371;28;20029;-71
2021/09/12 14:57:27;;;;;;;3.90;1.70;;;23.80;60.40;;;;;;6248696;28;20111;-71
2021/09/12 15:00:28;;;;;;;4.55;2.10;;;23.80;60.30;;;;;;6266685;28;20381;-72
2021/09/12 15:03:28;;;;;;;4.88;2.38;;;23.80;60.30;;;;;;6265612;28;20021;-71
2021/09/12 15:06:29;;;;;;;4.25;2.30;;;23.80;61.20;;;;;;6263390;28;20070;-71
2021/09/12 15:09:29;;;;;;;3.38;2.17;;;23.80;60.40;;;;;;6248882;28;20663;-71
2021/09/12 15:12:31;;;;;;;3.53;2.50;;;23.80;60.30;;;;;;6247939;28;20381;-70
2021/09/12 15:15:33;;;;;;;6.88;3.03;;;23.80;60.30;;;;;;6265840;28;20461;-72
2021/09/12 15:18:33;;;;;;;5.38;2.45;;;23.80;60.40;;;;;;6256101;28;20071;-71
2021/09/12 15:21:34;;;;;;;5.97;2.40;;;23.80;60.40;;;;;;6265982;28;20401;-71
2021/09/12 15:24:34;;;;;;;5.03;2.67;;;23.80;60.40;;;;;;6242803;28;20025;-71
2021/09/12 15:27:36;;;;;;;5.18;2.40;;;23.80;60.40;;;;;;6265794;28;20029;-70
2021/09/12 15:30:36;;;;;;;7.90;3.08;;;23.80;60.40;;;;;;6248763;28;20562;-72
2021/09/12 15:33:37;;;;;;;7.22;3.05;;;23.80;60.40;;;;;;6246230;28;20041;-71
2021/09/12 15:36:39;;;;;;;6.03;3.33;;;23.80;60.40;;;;;;6263883;28;20490;-71
2021/09/12 15:39:39;;;;;;;6.72;3.38;;;23.80;60.40;;;;;;6247836;28;20033;-70
2021/09/12 15:42:41;;;;;;;10.85;4.25;;;23.80;60.40;;;;;;6267455;28;20253;-71
2021/09/12 15:45:42;;;;;;;7.47;3.58;;;23.80;60.40;;;;;;6265500;28;20017;-71
2021/09/12 15:48:42;;;;;;;8.70;3.78;;;23.80;60.40;;;;;;6233388;28;20030;-71